Time;durP1;ratioP1;P1;durP2;ratioP2;P2;SDS_P1;SDS_P2;PMS_P1;PMS_P2;Temp;Humidity;BMP_temperature;BMP_pressure;BME280_temperature;BME280_humidity;BME280_pressure;Samples;Min_cycle;Max_cycle;Signal;HPM_P1;HPM_P2
2023/08/03 06:23:29;;;;;;;;;2.67;2.67;;;;;22.07;56.93;100039.00;5054109;28;45642;-89
2023/08/03 06:25:55;;;;;;;;;2.67;0.33;;;;;22.22;56.10;100045.34;5056842;27;45871;-84
2023/08/03 06:28:22;;;;;;;;;3.33;1.00;;;;;22.40;56.02;100043.41;5054492;27;45614;-84
2023/08/03 06:30:50;;;;;;;;;1.00;1.00;;;;;22.58;55.82;100040.44;5067265;27;45707;-87
2023/08/03 06:33:18;;;;;;;;;2.00;2.00;;;;;22.75;55.52;100042.00;5093950;27;45404;-88
2023/08/03 06:35:48;;;;;;;;;3.33;2.33;;;;;22.93;55.22;100037.31;5044775;28;45559;-89
2023/08/03 06:38:20;;;;;;;;;1.33;1.33;;;;;23.10;54.91;100043.44;5035563;27;45801;-89
2023/08/03 06:40:46;;;;;;;;;0.33;0.33;;;;;23.23;54.37;100051.78;5042132;27;45660;-87
2023/08/03 06:43:13;;;;;;;;;0.00;0.00;;;;;23.37;54.39;100055.56;5058016;27;46605;-89
2023/08/03 06:45:39;;;;;;;;;2.00;2.00;;;;;23.52;53.90;100054.72;5047776;27;45461;-87
2023/08/03 06:48:05;;;;;;;;;2.00;1.00;;;;;23.63;53.99;100067.00;5041421;27;45451;-87
2023/08/03 06:50:32;;;;;;;;;2.33;2.33;;;;;23.73;53.21;100070.25;5043780;27;45722;-85
2023/08/03 06:52:59;;;;;;;;;2.00;2.00;;;;;23.84;52.98;100077.09;5040792;27;46101;-86
2023/08/03 06:55:24;;;;;;;;;1.33;1.33;;;;;23.91;53.02;100069.88;5087307;27;46263;-84
2023/08/03 06:57:50;;;;;;;;;1.00;1.00;;;;;24.01;52.75;100077.75;5090932;27;45735;-81
2023/08/03 07:00:15;;;;;;;;;4.00;2.00;;;;;24.09;52.69;100074.13;5061620;27;45655;-84
2023/08/03 07:02:47;;;;;;;;;3.00;2.00;;;;;24.15;52.33;100078.78;5045003;27;46422;-80
2023/08/03 07:05:13;;;;;;;;;1.67;1.67;;;;;24.21;51.86;100079.91;5052694;27;45481;-82
2023/08/03 07:07:39;;;;;;;;;1.67;1.67;;;;;24.25;51.92;100078.50;5066191;27;45487;-82
2023/08/03 07:10:05;;;;;;;;;2.33;2.33;;;;;24.31;52.15;100080.44;5074195;27;45651;-81
2023/08/03 07:12:31;;;;;;;;;1.67;1.67;;;;;24.37;51.90;100083.41;5091705;27;45419;-82
2023/08/03 07:14:57;;;;;;;;;4.00;2.67;;;;;24.40;51.51;100085.75;5034410;27;45755;-82
2023/08/03 07:17:22;;;;;;;;;3.00;3.00;;;;;24.44;51.43;100096.03;5044462;27;45445;-83
2023/08/03 07:19:50;;;;;;;;;1.33;1.33;;;;;24.48;51.38;100091.91;5044530;28;45791;-82
2023/08/03 07:22:17;;;;;;;;;1.67;1.67;;;;;24.52;50.99;100097.78;5068196;27;45387;-83
2023/08/03 07:24:42;;;;;;;;;2.33;2.33;;;;;24.55;50.81;100107.41;5053086;27;45835;-83
2023/08/03 07:27:07;;;;;;;;;2.33;2.00;;;;;24.58;51.01;100099.75;5084701;27;48730;-80
2023/08/03 07:29:34;;;;;;;;;1.00;1.00;;;;;24.59;51.11;100098.72;5042261;27;45477;-79
2023/08/03 07:32:00;;;;;;;;;1.00;1.00;;;;;24.63;50.80;100109.16;5088332;27;46264;-75
2023/08/03 07:34:25;;;;;;;;;4.67;1.33;;;;;24.66;50.59;100106.94;5055862;27;45553;-76
2023/08/03 07:36:54;;;;;;;;;2.00;2.00;;;;;24.69;50.90;100113.84;5031232;27;53767;-78
2023/08/03 07:39:20;;;;;;;;;3.00;3.00;;;;;24.72;50.72;100108.88;5030031;28;45494;-81
2023/08/03 07:41:45;;;;;;;;;3.33;2.00;;;;;24.77;50.71;100121.03;5012024;28;47740;-82
2023/08/03 07:44:10;;;;;;;;;2.67;2.67;;;;;24.80;50.64;100120.66;5030600;27;45356;-79
2023/08/03 07:46:36;;;;;;;;;2.00;2.00;;;;;24.80;50.84;100117.94;5052629;27;45463;-79
2023/08/03 07:49:01;;;;;;;;;3.67;2.00;;;;;24.85;50.75;100129.09;5077665;27;45553;-80
2023/08/03 07:51:27;;;;;;;;;3.00;1.67;;;;;24.88;50.65;100131.41;5035367;27;45451;-83
2023/08/03 07:53:52;;;;;;;;;2.00;2.00;;;;;24.88;50.58;100130.56;5028545;27;48144;-79
2023/08/03 07:56:19;;;;;;;;;1.00;1.00;;;;;24.91;50.11;100132.88;5025062;27;46724;-77
2023/08/03 07:58:45;;;;;;;;;5.67;2.33;;;;;24.93;50.55;100133.53;5030658;28;45811;-88
2023/08/03 08:01:11;;;;;;;;;1.67;1.67;;;;;24.94;50.73;100133.34;5061995;27;45561;-85
2023/08/03 08:03:38;;;;;;;;;5.67;2.00;;;;;24.95;50.77;100145.03;5068886;27;45421;-86
2023/08/03 08:06:08;;;;;;;;;2.67;2.00;;;;;24.98;50.53;100140.06;5029840;27;45723;-85
2023/08/03 08:08:34;;;;;;;;;1.00;1.00;;;;;25.01;50.49;100155.13;5030853;28;45428;-88
2023/08/03 08:10:59;;;;;;;;;5.00;2.00;;;;;25.03;50.85;100155.78;5028821;28;45710;-86
2023/08/03 08:13:25;;;;;;;;;3.33;1.67;;;;;25.06;51.33;100157.28;5051246;27;45791;-87
2023/08/03 08:15:50;;;;;;;;;3.00;1.00;;;;;25.08;51.01;100161.47;5045768;27;45521;-87
2023/08/03 08:18:15;;;;;;;;;2.00;1.00;;;;;25.12;50.82;100161.91;5030100;28;48209;-89
2023/08/03 08:20:44;;;;;;;;;2.67;2.00;;;;;25.13;50.61;100167.16;5029835;28;55512;-85
2023/08/03 08:23:10;;;;;;;;;2.00;1.00;;;;;25.16;51.36;100168.66;5016981;28;45527;-83
2023/08/03 08:25:37;;;;;;;;;3.00;2.00;;;;;25.18;51.06;100171.19;5038528;27;45574;-83
2023/08/03 08:28:02;;;;;;;;;3.00;2.00;;;;;25.23;51.32;100166.00;5058793;27;45657;-86
2023/08/03 08:30:28;;;;;;;;;3.67;2.67;;;;;25.24;51.13;100168.53;5012087;28;46432;-87
2023/08/03 08:32:53;;;;;;;;;0.67;0.67;;;;;25.24;51.10;100165.81;5029842;28;45567;-87
2023/08/03 08:35:18;;;;;;;;;2.00;2.00;;;;;25.28;51.29;100171.69;5030252;28;45379;-81
2023/08/03 08:37:44;;;;;;;;;1.67;1.67;;;;;25.33;51.08;100173.81;5028470;27;45455;-83
2023/08/03 08:40:11;;;;;;;;;1.33;1.33;;;;;25.35;51.12;100169.91;5045197;27;46387;-82
2023/08/03 08:42:38;;;;;;;;;0.67;0.67;;;;;25.39;51.16;100176.59;5034741;27;45465;-82
2023/08/03 08:45:06;;;;;;;;;1.33;1.33;;;;;25.43;51.21;100181.66;5025220;27;45447;-80
2023/08/03 08:47:32;;;;;;;;;1.67;1.67;;;;;25.44;50.23;100178.75;5027479;27;45493;-84
2023/08/03 08:49:57;;;;;;;;;3.33;1.00;;;;;25.40;49.96;100177.44;5010837;28;47800;-85
2023/08/03 08:52:25;;;;;;;;;3.00;3.00;;;;;25.39;49.57;100183.91;5047416;27;45848;-81
2023/08/03 08:54:51;;;;;;;;;2.00;2.00;;;;;25.36;49.75;100185.16;5022558;27;45590;-83
2023/08/03 08:57:16;;;;;;;;;1.00;1.00;;;;;25.36;49.56;100190.59;5022870;27;45827;-82
2023/08/03 09:00:05;;;;;;;;;3.00;3.00;;;;;25.37;49.86;100189.53;5021320;27;45432;-80
2023/08/03 09:02:31;;;;;;;;;2.67;1.33;;;;;25.36;50.28;100196.00;5036369;27;45575;-85
2023/08/03 09:04:56;;;;;;;;;3.00;3.00;;;;;25.36;50.27;100193.28;5049910;27;45402;-79
2023/08/03 09:07:22;;;;;;;;;3.00;1.33;;;;;25.37;50.31;100194.97;5066758;27;45524;-82
2023/08/03 09:09:48;;;;;;;;;1.33;1.33;;;;;25.39;50.30;100208.38;5072796;27;45826;-82
2023/08/03 09:12:26;;;;;;;;;2.00;2.00;;;;;25.40;50.36;100207.31;5035509;27;45814;-81
2023/08/03 09:14:52;;;;;;;;;2.00;1.00;;;;;25.43;50.20;100219.69;5021049;27;45969;-88
2023/08/03 09:17:18;;;;;;;;;2.00;2.00;;;;;25.44;50.33;100218.63;5025741;27;45509;-89
2023/08/03 09:19:45;;;;;;;;;3.00;3.00;;;;;25.47;50.61;100223.69;5022405;27;46345;-89
2023/08/03 09:22:11;;;;;;;;;2.00;2.00;;;;;25.48;50.19;100212.63;5021437;27;45515;-87
2023/08/03 09:24:37;;;;;;;;;4.67;3.67;;;;;25.51;50.34;100227.72;5016003;27;46118;-86
2023/08/03 09:27:02;;;;;;;;;3.00;3.00;;;;;25.52;50.19;100229.38;5018887;27;45734;-87
2023/08/03 09:29:32;;;;;;;;;3.00;3.00;;;;;25.53;50.65;100225.63;5007879;27;46016;-85
2023/08/03 09:32:05;;;;;;;;;2.00;2.00;;;;;25.56;50.18;100222.56;5052123;27;45393;-86
2023/08/03 09:34:42;;;;;;;;;1.00;1.00;;;;;25.58;50.49;100230.53;5021671;28;45987;-84
2023/08/03 09:37:09;;;;;;;;;3.33;1.33;;;;;25.57;50.30;100229.66;5018040;27;45395;-84
2023/08/03 09:39:37;;;;;;;;;3.67;3.00;;;;;25.60;50.68;100232.00;5018328;27;45480;-85
2023/08/03 09:42:09;;;;;;;;;3.33;1.67;;;;;25.62;50.18;100229.91;5007307;28;45462;-84
2023/08/03 09:44:36;;;;;;;;;2.00;2.00;;;;;25.64;50.64;100240.59;5029901;27;45729;-83
2023/08/03 09:47:02;;;;;;;;;2.00;2.00;;;;;25.64;50.59;100236.03;5019903;27;45621;-89
2023/08/03 09:49:28;;;;;;;;;1.00;1.00;;;;;25.67;50.54;100236.66;5008249;28;46472;-89
2023/08/03 09:51:58;;;;;;;;;1.00;1.00;;;;;25.67;50.01;100239.38;5011907;27;45617;-87
2023/08/03 09:54:46;;;;;;;;;2.67;2.67;;;;;25.70;50.04;100241.72;5018408;27;45740;-86
2023/08/03 09:57:13;;;;;;;;;1.00;1.00;;;;;25.70;50.83;100245.25;5044367;27;45476;-86
2023/08/03 09:59:43;;;;;;;;;1.33;1.33;;;;;25.72;50.12;100248.63;5062576;27;45566;-88
2023/08/03 10:02:10;;;;;;;;;2.67;2.00;;;;;25.73;50.82;100250.31;5050731;27;45798;-90
2023/08/03 10:04:42;;;;;;;;;2.33;2.33;;;;;25.74;50.33;100254.69;5023971;28;45557;-87
2023/08/03 10:07:10;;;;;;;;;2.33;2.00;;;;;25.75;50.76;100256.38;5025587;27;46110;-87
2023/08/03 10:09:50;;;;;;;;;1.00;1.00;;;;;25.76;51.08;100255.31;5050045;27;45422;-87
2023/08/03 10:12:24;;;;;;;;;1.00;1.00;;;;;25.77;50.88;100262.47;5039752;27;46131;-90
2023/08/03 10:14:51;;;;;;;;;2.00;2.00;;;;;25.78;51.10;100263.28;5026855;28;45795;-85
2023/08/03 10:17:18;;;;;;;;;1.67;1.67;;;;;25.79;50.77;100259.56;5025296;27;45641;-87
2023/08/03 10:19:44;;;;;;;;;2.67;2.00;;;;;25.79;51.09;100260.38;5023958;28;46679;-86
2023/08/03 10:22:10;;;;;;;;;2.67;2.67;;;;;25.81;51.19;100262.91;5029500;27;45432;-88
2023/08/03 10:24:35;;;;;;;;;2.00;2.00;;;;;25.85;50.85;100266.06;5062189;27;45551;-89
2023/08/03 10:27:18;;;;;;;;;2.00;2.00;;;;;25.86;50.40;100275.91;5028689;27;45479;-88
2023/08/03 10:29:56;;;;;;;;;1.00;1.00;;;;;25.87;51.12;100274.88;5025335;28;45666;-84
2023/08/03 10:32:27;;;;;;;;;1.67;1.67;;;;;25.89;51.22;100278.25;5027201;27;45508;-84
2023/08/03 10:34:58;;;;;;;;;1.00;1.00;;;;;25.90;50.86;100277.19;5028186;28;45599;-84
2023/08/03 10:37:23;;;;;;;;;1.67;1.67;;;;;25.89;50.78;100292.69;5047040;27;45827;-84
2023/08/03 10:39:52;;;;;;;;;1.33;1.33;;;;;25.88;51.09;100288.25;5089996;27;45451;-84
2023/08/03 10:42:29;;;;;;;;;2.33;2.33;;;;;25.90;50.48;100298.94;5026815;27;45395;-89
2023/08/03 10:45:20;;;;;;;;;2.00;1.67;;;;;25.90;49.46;100297.09;5032605;27;45428;-90
2023/08/03 10:47:45;;;;;;;;;3.00;2.00;;;;;25.84;48.67;100297.88;5035634;27;45504;-78
2023/08/03 10:50:11;;;;;;;;;3.00;3.00;;;;;25.81;48.40;100298.25;5067802;27;45480;-81
2023/08/03 10:52:36;;;;;;;;;1.00;1.00;;;;;25.75;48.68;100299.84;5016490;27;45968;-83
2023/08/03 10:55:20;;;;;;;;;4.00;4.00;;;;;25.71;48.58;100297.75;5021428;28;45409;-84
2023/08/03 10:57:46;;;;;;;;;2.00;2.00;;;;;25.65;48.59;100311.06;4999458;27;45649;-85
2023/08/03 11:00:11;;;;;;;;;4.00;2.00;;;;;25.63;48.57;100304.97;5018607;28;46125;-85
2023/08/03 11:02:37;;;;;;;;;2.00;2.00;;;;;25.56;48.66;100305.94;5024653;27;45469;-86
2023/08/03 11:05:05;;;;;;;;;3.67;2.00;;;;;25.57;48.66;100302.19;5005514;27;45540;-86
2023/08/03 11:07:38;;;;;;;;;3.00;1.67;;;;;25.52;48.88;100305.47;5022007;27;45502;-88
2023/08/03 11:10:05;;;;;;;;;4.00;2.00;;;;;25.47;48.66;100308.72;5027065;27;46478;-87
2023/08/03 11:12:31;;;;;;;;;1.33;1.00;;;;;25.47;48.29;100313.34;5010583;27;45490;-88
2023/08/03 11:14:59;;;;;;;;;1.33;1.33;;;;;25.43;49.05;100320.19;5027312;27;45833;-86
2023/08/03 11:17:30;;;;;;;;;2.67;2.00;;;;;25.39;48.27;100320.56;5028035;27;45422;-88
2023/08/03 11:19:56;;;;;;;;;1.00;1.00;;;;;25.37;48.62;100325.34;5024128;27;48015;-87
2023/08/03 11:22:24;;;;;;;;;1.00;1.00;;;;;25.32;48.28;100321.53;5025028;27;45507;-88
2023/08/03 11:24:51;;;;;;;;;1.00;1.00;;;;;25.31;48.17;100328.84;5023982;28;45788;-87
2023/08/03 11:27:20;;;;;;;;;2.00;2.00;;;;;25.27;48.51;100332.97;5035124;27;45690;-85
2023/08/03 11:29:46;;;;;;;;;1.00;1.00;;;;;25.26;48.41;100329.41;5051716;27;45421;-91
2023/08/03 11:32:12;;;;;;;;;1.00;1.00;;;;;25.27;48.58;100341.13;5009434;27;45638;-89
2023/08/03 11:34:39;;;;;;;;;1.67;1.67;;;;;25.29;48.71;100339.03;5032243;28;45461;-87
2023/08/03 11:37:05;;;;;;;;;2.00;2.00;;;;;25.30;49.56;100335.28;5022643;27;45530;-89
2023/08/03 11:39:30;;;;;;;;;2.00;1.00;;;;;25.31;49.23;100341.56;5011900;28;47539;-91
2023/08/03 11:41:56;;;;;;;;;3.33;2.00;;;;;25.33;48.82;100343.06;5032323;27;45419;-90
2023/08/03 11:44:23;;;;;;;;;1.33;1.33;;;;;25.34;48.95;100352.91;5068786;27;45454;-90
2023/08/03 11:46:49;;;;;;;;;1.67;1.00;;;;;25.35;49.10;100354.59;5010691;27;45536;-88
2023/08/03 11:49:15;;;;;;;;;1.00;1.00;;;;;25.35;49.08;100351.03;5029795;28;45621;-87
2023/08/03 11:51:41;;;;;;;;;2.00;2.00;;;;;25.37;49.01;100359.81;5029335;27;45473;-92
2023/08/03 11:54:09;;;;;;;;;1.67;1.67;;;;;25.37;49.41;100357.97;5065216;27;45743;-89
2023/08/03 11:56:39;;;;;;;;;1.67;1.67;;;;;25.38;49.26;100362.34;5059299;27;45405;-87
2023/08/03 11:59:08;;;;;;;;;2.00;2.00;;;;;25.38;49.11;100361.53;5028422;27;45669;-88
2023/08/03 12:01:41;;;;;;;;;1.00;1.00;;;;;25.39;49.54;100363.22;5023598;28;45432;-84
2023/08/03 12:04:07;;;;;;;;;2.00;2.00;;;;;25.42;48.92;100370.13;5026487;27;45336;-89
2023/08/03 12:06:45;;;;;;;;;1.00;1.00;;;;;25.43;49.25;100369.09;5039726;27;45420;-90
2023/08/03 12:09:19;;;;;;;;;3.00;1.33;;;;;25.45;49.23;100375.16;5038989;27;45497;-88
2023/08/03 12:11:45;;;;;;;;;2.33;1.33;;;;;25.45;49.70;100381.44;5027176;27;45535;-86
2023/08/03 12:14:10;;;;;;;;;2.00;2.00;;;;;25.45;48.93;100370.59;5030020;28;45574;-89
2023/08/03 12:16:37;;;;;;;;;0.00;0.00;;;;;25.46;49.16;100376.88;5029518;27;45545;-85
2023/08/03 12:19:07;;;;;;;;;2.00;2.00;;;;;25.46;49.31;100377.69;5030316;27;46145;-87
2023/08/03 12:21:33;;;;;;;;;2.00;2.00;;;;;25.48;49.12;100369.34;5048536;27;46246;-91
2023/08/03 12:23:58;;;;;;;;;1.33;1.33;;;;;25.49;49.24;100382.75;5084832;27;45678;-89
2023/08/03 12:26:23;;;;;;;;;3.33;2.00;;;;;25.50;49.31;100378.19;5029340;27;45348;-88
2023/08/03 12:28:49;;;;;;;;;3.00;1.33;;;;;25.51;49.23;100374.41;5027591;28;53472;-90
2023/08/03 12:31:14;;;;;;;;;1.00;1.00;;;;;25.53;49.72;100375.91;5050307;27;45517;-85
2023/08/03 12:33:39;;;;;;;;;2.33;2.00;;;;;25.53;49.97;100384.06;5045612;27;53841;-88
2023/08/03 12:36:05;;;;;;;;;1.33;1.33;;;;;25.53;49.44;100384.06;5034277;27;45481;-87
2023/08/03 12:38:30;;;;;;;;;1.00;1.00;;;;;25.55;49.67;100383.91;5018103;28;45617;-83
2023/08/03 12:40:55;;;;;;;;;2.00;1.00;;;;;25.56;49.94;100382.00;5015953;28;45446;-86
2023/08/03 12:43:21;;;;;;;;;1.00;1.00;;;;;25.54;49.33;100382.16;5021200;27;45441;-84
2023/08/03 12:45:46;;;;;;;;;3.00;3.00;;;;;25.57;49.81;100380.97;5016374;27;45752;-87
2023/08/03 12:48:11;;;;;;;;;2.00;1.00;;;;;25.57;49.88;100386.41;5013501;27;46805;-88
2023/08/03 12:50:37;;;;;;;;;1.67;1.00;;;;;25.59;49.63;100397.94;5010188;27;47251;-86
2023/08/03 12:53:02;;;;;;;;;1.33;1.33;;;;;25.59;49.75;100397.94;5009274;28;47059;-89
2023/08/03 12:55:27;;;;;;;;;3.00;2.00;;;;;25.59;49.64;100389.78;5016700;27;55106;-88
2023/08/03 12:57:52;;;;;;;;;3.67;2.00;;;;;25.58;49.17;100393.56;5027003;28;46025;-88
2023/08/03 13:00:18;;;;;;;;;2.33;1.00;;;;;25.56;49.22;100384.72;5041873;27;49363;-88
2023/08/03 13:02:43;;;;;;;;;1.00;1.00;;;;;25.55;49.42;100392.06;5080971;27;45372;-87
2023/08/03 13:05:08;;;;;;;;;1.67;1.67;;;;;25.54;49.61;100387.59;5024712;27;45305;-86
2023/08/03 13:07:34;;;;;;;;;1.67;1.67;;;;;25.57;49.74;100387.25;5007053;28;47609;-88
2023/08/03 13:10:00;;;;;;;;;1.00;1.00;;;;;25.58;49.45;100390.84;4999149;27;48861;-87
2023/08/03 13:12:25;;;;;;;;;0.00;0.00;;;;;25.59;49.70;100389.78;5044478;27;45447;-89
2023/08/03 13:14:51;;;;;;;;;1.67;1.00;;;;;25.59;49.40;100387.91;5032707;27;45358;-90
2023/08/03 13:17:16;;;;;;;;;1.00;1.00;;;;;25.60;49.15;100396.91;5028898;27;59127;-89
2023/08/03 13:19:41;;;;;;;;;2.00;2.00;;;;;25.60;49.63;100395.03;5001583;27;45795;-92
2023/08/03 13:22:07;;;;;;;;;1.00;1.00;;;;;25.62;49.90;100386.69;5026676;28;45456;-88
2023/08/03 13:24:32;;;;;;;;;1.00;1.00;;;;;25.64;49.75;100384.63;5048931;27;54059;-86
2023/08/03 13:27:12;;;;;;;;;3.33;2.00;;;;;25.64;49.67;100377.34;5052467;27;45492;-88
2023/08/03 13:29:41;;;;;;;;;1.67;1.67;;;;;25.65;49.50;100386.31;5064652;27;45586;-90
2023/08/03 13:32:07;;;;;;;;;2.00;2.00;;;;;25.68;49.34;100385.09;5028654;28;45444;-89
2023/08/03 13:34:32;;;;;;;;;2.00;2.00;;;;;25.70;49.49;100386.56;5043336;27;45900;-87
2023/08/03 13:36:57;;;;;;;;;2.00;2.00;;;;;25.71;49.51;100387.44;5028665;27;56050;-88
2023/08/03 13:39:22;;;;;;;;;2.33;2.33;;;;;25.73;49.94;100388.06;5052145;27;58740;-86
2023/08/03 13:41:48;;;;;;;;;0.33;0.33;;;;;25.75;49.28;100396.88;5058717;27;46670;-87
2023/08/03 13:44:13;;;;;;;;;6.00;3.00;;;;;25.74;49.84;100393.31;5024202;27;45506;-88
2023/08/03 13:46:39;;;;;;;;;2.00;2.00;;;;;25.75;50.03;100392.28;5024794;27;50840;-89
2023/08/03 13:49:04;;;;;;;;;2.00;1.00;;;;;25.76;49.71;100404.81;5067635;27;56562;-89
2023/08/03 13:51:29;;;;;;;;;4.00;2.33;;;;;25.76;49.64;100390.41;5052549;27;51427;-89
2023/08/03 13:53:56;;;;;;;;;0.00;0.00;;;;;25.77;49.37;100400.25;5025047;27;45496;-87
2023/08/03 13:56:21;;;;;;;;;3.00;2.00;;;;;25.79;49.51;100401.72;5028320;28;47063;-84
2023/08/03 13:58:47;;;;;;;;;3.33;1.00;;;;;25.79;49.90;100409.06;5021296;27;59501;-83
2023/08/03 14:01:13;;;;;;;;;2.00;2.00;;;;;25.81;49.64;100403.41;5028025;27;45765;-85
2023/08/03 14:03:38;;;;;;;;;2.00;1.00;;;;;25.81;49.57;100411.56;5032654;27;45434;-83
2023/08/03 14:06:04;;;;;;;;;3.00;2.00;;;;;25.82;49.17;100413.28;5044957;27;45495;-83
2023/08/03 14:08:29;;;;;;;;;2.00;2.00;;;;;25.82;49.55;100414.09;5065722;27;45524;-84
2023/08/03 14:10:55;;;;;;;;;2.00;2.00;;;;;25.83;49.11;100410.34;5025176;27;45620;-84
2023/08/03 14:13:20;;;;;;;;;0.33;0.33;;;;;25.85;49.22;100410.16;5009585;28;45920;-86
2023/08/03 14:15:46;;;;;;;;;1.00;1.00;;;;;25.86;49.53;100419.97;5010949;27;46561;-86
2023/08/03 14:18:11;;;;;;;;;1.00;1.00;;;;;25.85;49.44;100421.88;5052356;27;45784;-86
2023/08/03 14:20:38;;;;;;;;;0.00;0.00;;;;;25.86;49.05;100419.97;5039571;27;45327;-84
2023/08/03 14:23:03;;;;;;;;;0.00;0.00;;;;;25.87;49.04;100425.22;5000348;27;45446;-84
2023/08/03 14:25:29;;;;;;;;;1.00;1.00;;;;;25.88;48.88;100416.03;5027748;28;53580;-83
2023/08/03 14:27:54;;;;;;;;;0.00;0.00;;;;;25.89;48.84;100414.16;5024516;27;45608;-83
2023/08/03 14:30:20;;;;;;;;;0.67;0.67;;;;;25.89;48.80;100416.88;5049612;27;45402;-83
2023/08/03 14:32:46;;;;;;;;;0.00;0.00;;;;;25.89;48.66;100414.16;5074559;27;45698;-86
2023/08/03 14:35:12;;;;;;;;;0.67;0.00;;;;;25.88;49.19;100413.31;5028287;27;45638;-88
2023/08/03 14:37:37;;;;;;;;;0.00;0.00;;;;;25.91;49.37;100414.81;5048638;27;45628;-86
2023/08/03 14:40:02;;;;;;;;;2.67;0.33;;;;;25.91;48.84;100409.38;5031649;27;45581;-88
2023/08/03 14:42:30;;;;;;;;;0.00;0.00;;;;;25.89;48.90;100412.31;5043826;27;45489;-86
2023/08/03 14:44:55;;;;;;;;;0.00;0.00;;;;;25.91;49.29;100417.53;5047351;27;46295;-85
2023/08/03 14:47:21;;;;;;;;;0.00;0.00;;;;;25.91;49.36;100421.09;5062463;27;45389;-83
2023/08/03 14:49:46;;;;;;;;;0.00;0.00;;;;;25.93;49.39;100415.47;5020448;27;45554;-83
2023/08/03 14:52:11;;;;;;;;;0.00;0.00;;;;;25.94;49.19;100417.16;5027436;27;48108;-84
2023/08/03 14:54:38;;;;;;;;;0.00;0.00;;;;;25.95;48.89;100418.81;5024537;27;50846;-84
2023/08/03 14:57:04;;;;;;;;;0.00;0.00;;;;;25.95;49.23;100418.00;5049101;27;45555;-80
2023/08/03 14:59:30;;;;;;;;;0.00;0.00;;;;;25.95;48.91;100410.66;5048324;27;45403;-81
2023/08/03 15:01:58;;;;;;;;;1.67;0.00;;;;;25.97;49.35;100415.91;5012655;27;45722;-82
2023/08/03 15:04:23;;;;;;;;;1.00;1.00;;;;;25.97;49.13;100421.34;5029002;27;45536;-83
2023/08/03 15:06:50;;;;;;;;;0.67;0.00;;;;;25.98;49.33;100420.31;5022379;27;52730;-84
2023/08/03 15:09:15;;;;;;;;;0.33;0.33;;;;;26.00;48.74;100423.69;5026801;27;45584;-86
2023/08/03 15:11:40;;;;;;;;;0.67;0.00;;;;;25.99;49.07;100430.19;5033897;27;45471;-82
2023/08/03 15:14:05;;;;;;;;;0.00;0.00;;;;;25.99;48.60;100428.28;5029704;27;46061;-82
2023/08/03 15:16:34;;;;;;;;;0.00;0.00;;;;;25.98;49.02;100432.03;5029668;27;49847;-82
2023/08/03 15:18:59;;;;;;;;;0.00;0.00;;;;;25.97;48.61;100438.53;5029400;27;45821;-87
2023/08/03 15:21:25;;;;;;;;;1.00;1.00;;;;;25.98;47.89;100439.34;5044271;27;45544;-85
2023/08/03 15:23:52;;;;;;;;;0.33;0.33;;;;;25.94;48.06;100451.66;5014861;27;46378;-85
2023/08/03 15:26:19;;;;;;;;;1.00;1.00;;;;;25.90;48.59;100445.75;5040562;27;45870;-81
2023/08/03 15:28:46;;;;;;;;;1.00;1.00;;;;;25.87;48.59;100451.59;5028967;27;45540;-85
2023/08/03 15:31:12;;;;;;;;;0.33;0.33;;;;;25.84;48.31;100447.38;5029847;27;45639;-86
2023/08/03 15:33:38;;;;;;;;;0.00;0.00;;;;;25.84;48.40;100449.25;5029213;27;46178;-85
2023/08/03 15:36:06;;;;;;;;;2.00;0.50;;;;;25.83;48.34;100455.72;5050015;27;45567;-88
2023/08/03 15:38:40;;;;;;;;;1.00;1.00;;;;;25.82;49.18;100457.59;5020914;27;45514;-84
2023/08/03 15:41:06;;;;;;;;;1.00;1.00;;;;;25.82;48.93;100454.88;5028784;27;46663;-82
2023/08/03 15:44:24;;;;;;;;;0.67;0.67;;;;;25.83;48.71;100453.84;5027375;27;46172;-89
2023/08/03 15:47:04;;;;;;;;;2.00;2.00;;;;;25.83;49.41;100453.84;5022573;27;45643;-88
2023/08/03 15:49:30;;;;;;;;;1.33;1.33;;;;;25.84;49.04;100460.97;5042271;27;45624;-88
2023/08/03 15:51:55;;;;;;;;;1.00;1.00;;;;;25.85;48.80;100461.81;5063221;27;45518;-82
2023/08/03 15:54:21;;;;;;;;;1.00;1.00;;;;;25.86;49.07;100460.75;5028347;27;46974;-85
2023/08/03 15:56:46;;;;;;;;;0.00;0.00;;;;;25.85;48.87;100461.81;5033573;28;45836;-84
2023/08/03 15:59:12;;;;;;;;;2.33;2.33;;;;;25.82;48.74;100457.59;5045199;27;46769;-82
2023/08/03 16:01:37;;;;;;;;;2.00;2.00;;;;;25.83;48.75;100464.69;5056086;27;57706;-81
2023/08/03 16:04:02;;;;;;;;;1.00;1.00;;;;;25.82;48.50;100454.03;5026752;27;45875;-84
2023/08/03 16:06:28;;;;;;;;;0.67;0.67;;;;;25.80;48.49;100462.38;5026926;27;45459;-85
2023/08/03 16:08:53;;;;;;;;;1.33;1.33;;;;;25.76;48.93;100456.47;5029843;28;45484;-85
2023/08/03 16:11:19;;;;;;;;;3.00;3.00;;;;;25.75;48.78;100460.22;5029459;27;45381;-82
2023/08/03 16:13:44;;;;;;;;;3.00;3.00;;;;;25.73;48.88;100458.72;5036845;27;45504;-82
2023/08/03 16:16:09;;;;;;;;;4.00;4.00;;;;;25.70;49.01;100459.94;5041807;27;45473;-85
2023/08/03 16:18:35;;;;;;;;;3.00;2.33;;;;;25.69;48.65;100455.56;5023795;27;45516;-87
2023/08/03 16:21:05;;;;;;;;;2.67;2.67;;;;;25.68;48.51;100459.31;5019490;27;45763;-83
2023/08/03 16:23:33;;;;;;;;;2.33;2.33;;;;;25.67;48.92;100457.63;5010638;27;46702;-80
2023/08/03 16:26:05;;;;;;;;;5.00;3.00;;;;;25.65;48.88;100456.97;4972709;28;45620;-83
2023/08/03 16:28:30;;;;;;;;;3.00;3.00;;;;;25.62;48.49;100452.75;4981378;28;45932;-82
2023/08/03 16:30:55;;;;;;;;;3.33;3.33;;;;;25.61;49.08;100452.94;4982465;28;45465;-82
2023/08/03 16:33:21;;;;;;;;;2.00;2.00;;;;;25.60;48.53;100452.13;4983394;28;61690;-81
2023/08/03 16:35:47;;;;;;;;;2.67;2.67;;;;;25.60;48.75;100453.97;4982958;28;45636;-83
2023/08/03 16:38:12;;;;;;;;;2.67;2.67;;;;;25.58;48.73;100459.59;4989676;28;45725;-84
2023/08/03 16:40:37;;;;;;;;;2.33;2.33;;;;;25.57;48.80;100470.66;4978878;27;45442;-84
2023/08/03 16:43:03;;;;;;;;;1.00;1.00;;;;;25.54;49.04;100458.25;4986012;28;60157;-85
2023/08/03 16:45:28;;;;;;;;;3.00;2.00;;;;;25.52;49.29;100466.63;4984965;28;45562;-85
2023/08/03 16:47:54;;;;;;;;;3.00;3.00;;;;;25.50;49.00;100474.09;4989731;28;45458;-85
2023/08/03 16:50:21;;;;;;;;;3.00;1.33;;;;;25.49;48.97;100474.28;4983728;28;45542;-83
2023/08/03 16:52:46;;;;;;;;;2.33;2.00;;;;;25.50;48.98;100476.00;4987800;28;45390;-87
2023/08/03 16:55:11;;;;;;;;;4.00;2.00;;;;;25.48;49.05;100475.31;4989492;28;45498;-84
2023/08/03 16:57:37;;;;;;;;;2.00;2.00;;;;;25.49;49.41;100486.00;4989257;28;45571;-89
2023/08/03 17:00:02;;;;;;;;;2.33;2.33;;;;;25.50;49.70;100486.84;4986611;28;45700;-89
2023/08/03 17:02:28;;;;;;;;;2.00;2.00;;;;;25.48;49.26;100489.75;4973890;28;45763;-89
2023/08/03 17:04:54;;;;;;;;;4.00;2.00;;;;;25.48;49.63;100494.34;4975992;28;46648;-82
2023/08/03 17:07:19;;;;;;;;;1.67;1.67;;;;;25.44;49.26;100493.03;4979562;28;45513;-79
2023/08/03 17:09:44;;;;;;;;;2.00;2.00;;;;;25.42;48.77;100495.09;4991168;28;45513;-78
2023/08/03 17:12:10;;;;;;;;;1.67;1.67;;;;;25.42;49.19;100493.22;4988539;28;46082;-80
2023/08/03 17:14:36;;;;;;;;;2.00;2.00;;;;;25.42;48.66;100511.41;4988572;28;45613;-76
2023/08/03 17:17:01;;;;;;;;;4.33;3.00;;;;;25.43;49.09;100507.66;4975993;27;45661;-77
2023/08/03 17:19:27;;;;;;;;;2.00;2.00;;;;;25.43;49.32;100505.78;4973617;27;45510;-80
2023/08/03 17:21:52;;;;;;;;;4.00;3.00;;;;;25.44;49.29;100510.19;4998418;28;46326;-83
2023/08/03 17:24:17;;;;;;;;;1.00;1.00;;;;;25.45;48.98;100509.16;5028704;27;57830;-83
2023/08/03 17:26:43;;;;;;;;;2.00;2.00;;;;;25.49;49.04;100509.59;5027128;27;45764;-84
2023/08/03 17:29:09;;;;;;;;;2.00;2.00;;;;;25.51;49.10;100513.00;5019978;28;45467;-82
2023/08/03 17:31:39;;;;;;;;;2.00;2.00;;;;;25.54;49.13;100515.31;5036877;27;45386;-86
2023/08/03 17:34:08;;;;;;;;;2.00;2.00;;;;;25.55;49.35;100517.06;5023590;27;45620;-85
2023/08/03 17:36:35;;;;;;;;;2.33;2.33;;;;;25.59;49.49;100525.66;5015352;27;45809;-85
2023/08/03 17:39:01;;;;;;;;;1.33;1.33;;;;;25.62;49.13;100525.28;5045038;28;45583;-86
2023/08/03 17:41:26;;;;;;;;;2.00;2.00;;;;;25.64;49.61;100528.66;5028604;27;45472;-86
2023/08/03 17:43:51;;;;;;;;;2.00;2.00;;;;;25.65;49.79;100533.06;5026622;28;45314;-84
2023/08/03 17:46:17;;;;;;;;;1.00;1.00;;;;;25.67;49.22;100531.03;5042029;27;55873;-86